sensor_id;sensor_type;location;lat;lon;timestamp;pressure;altitude;pressure_sealevel;temperature;humidity
59757;BME280;45631;51.962;5.974;2023-03-22T00:00:10;100808.09;;;9.11;100.00
59757;BME280;45631;51.962;5.974;2023-03-22T00:02:41;100807.22;;;9.10;100.00
59757;BME280;45631;51.962;5.974;2023-03-22T00:05:09;100811.84;;;9.07;100.00
59757;BME280;45631;51.962;5.974;2023-03-22T00:07:38;100799.84;;;9.03;100.00
59757;BME280;45631;51.962;5.974;2023-03-22T00:10:08;100798.13;;;9.02;100.00
59757;BME280;45631;51.962;5.974;2023-03-22T00:12:37;100797.28;;;9.01;100.00
59757;BME280;45631;51.962;5.974;2023-03-22T00:15:06;100796.25;;;9.04;100.00
59757;BME280;45631;51.962;5.974;2023-03-22T00:17:37;100799.84;;;9.03;100.00
59757;BME280;45631;51.962;5.974;2023-03-22T00:20:06;100793.63;;;9.04;100.00
59757;BME280;45631;51.962;5.974;2023-03-22T00:22:35;100796.34;;;9.02;100.00
59757;BME280;45631;51.962;5.974;2023-03-22T00:25:04;100793.91;;;8.99;100.00
59757;BME280;45631;51.962;5.974;2023-03-22T00:27:33;100798.13;;;9.02;100.00
59757;BME280;45631;51.962;5.974;2023-03-22T00:30:02;100782.75;;;8.95;100.00
59757;BME280;45631;51.962;5.974;2023-03-22T00:32:33;100784.88;;;8.89;100.00
59757;BME280;45631;51.962;5.974;2023-03-22T00:35:04;100777.88;;;8.89;100.00
59757;BME280;45631;51.962;5.974;2023-03-22T00:37:33;100784.34;;;8.84;100.00
59757;BME280;45631;51.962;5.974;2023-03-22T00:40:07;100780.94;;;8.82;100.00
59757;BME280;45631;51.962;5.974;2023-03-22T00:42:36;100777.66;;;8.78;100.00
59757;BME280;45631;51.962;5.974;2023-03-22T00:45:06;100777.94;;;8.73;100.00
59757;BME280;45631;51.962;5.974;2023-03-22T00:47:37;100771.00;;;8.72;100.00
59757;BME280;45631;51.962;5.974;2023-03-22T00:50:08;100775.50;;;8.70;100.00
59757;BME280;45631;51.962;5.974;2023-03-22T00:52:37;100774.56;;;8.71;100.00
59757;BME280;45631;51.962;5.974;2023-03-22T00:55:06;100766.97;;;8.67;100.00
59757;BME280;45631;51.962;5.974;2023-03-22T00:57:34;100758.16;;;8.68;100.00
59757;BME280;45631;51.962;5.974;2023-03-22T01:00:04;100755.81;;;8.63;100.00
59757;BME280;45631;51.962;5.974;2023-03-22T01:02:37;100756.84;;;8.60;100.00
59757;BME280;45631;51.962;5.974;2023-03-22T01:05:08;100759.38;;;8.62;100.00
59757;BME280;45631;51.962;5.974;2023-03-22T01:07:42;100750.09;;;8.56;100.00
59757;BME280;45631;51.962;5.974;2023-03-22T01:10:11;100743.16;;;8.55;100.00
59757;BME280;45631;51.962;5.974;2023-03-22T01:12:39;100741.63;;;8.51;100.00
59757;BME280;45631;51.962;5.974;2023-03-22T01:15:08;100738.59;;;8.59;100.00
59757;BME280;45631;51.962;5.974;2023-03-22T01:17:37;100729.59;;;8.63;100.00
59757;BME280;45631;51.962;5.974;2023-03-22T01:20:09;100729.94;;;8.57;100.00
59757;BME280;45631;51.962;5.974;2023-03-22T01:22:38;100729.19;;;8.55;100.00
59757;BME280;45631;51.962;5.974;2023-03-22T01:25:08;100715.44;;;8.51;100.00
59757;BME280;45631;51.962;5.974;2023-03-22T01:27:39;100712.03;;;8.49;100.00
59757;BME280;45631;51.962;5.974;2023-03-22T01:30:08;100710.19;;;8.51;100.00
59757;BME280;45631;51.962;5.974;2023-03-22T01:32:37;100709.50;;;8.48;100.00
59757;BME280;45631;51.962;5.974;2023-03-22T01:35:08;100707.81;;;8.46;100.00
59757;BME280;45631;51.962;5.974;2023-03-22T01:37:36;100699.19;;;8.44;100.00
59757;BME280;45631;51.962;5.974;2023-03-22T01:40:06;100697.44;;;8.45;100.00
59757;BME280;45631;51.962;5.974;2023-03-22T01:42:35;100685.50;;;8.39;100.00
59757;BME280;45631;51.962;5.974;2023-03-22T01:45:38;100686.38;;;8.40;100.00
59757;BME280;45631;51.962;5.974;2023-03-22T01:48:12;100676.81;;;8.39;100.00
59757;BME280;45631;51.962;5.974;2023-03-22T01:50:46;100677.63;;;8.39;100.00
59757;BME280;45631;51.962;5.974;2023-03-22T01:53:17;100669.53;;;8.44;100.00
59757;BME280;45631;51.962;5.974;2023-03-22T01:55:50;100664.78;;;8.51;100.00
59757;BME280;45631;51.962;5.974;2023-03-22T01:58:19;100659.47;;;8.52;100.00
59757;BME280;45631;51.962;5.974;2023-03-22T02:00:50;100650.63;;;8.53;100.00
59757;BME280;45631;51.962;5.974;2023-03-22T02:03:24;100644.66;;;8.51;100.00
59757;BME280;45631;51.962;5.974;2023-03-22T02:05:56;100644.75;;;8.50;100.00
59757;BME280;45631;51.962;5.974;2023-03-22T02:08:25;100639.69;;;8.46;100.00
59757;BME280;45631;51.962;5.974;2023-03-22T02:10:53;100633.41;;;8.49;100.00
59757;BME280;45631;51.962;5.974;2023-03-22T02:13:36;100629.19;;;8.46;100.00
59757;BME280;45631;51.962;5.974;2023-03-22T02:16:17;100630.06;;;8.47;100.00
59757;BME280;45631;51.962;5.974;2023-03-22T02:19:01;100622.94;;;8.49;100.00
59757;BME280;45631;51.962;5.974;2023-03-22T02:27:59;100610.78;;;8.48;100.00
59757;BME280;45631;51.962;5.974;2023-03-22T02:30:59;100610.28;;;8.56;100.00
59757;BME280;45631;51.962;5.974;2023-03-22T02:36:47;100602.19;;;8.60;100.00
59757;BME280;45631;51.962;5.974;2023-03-22T02:39:32;100602.34;;;8.72;100.00
59757;BME280;45631;51.962;5.974;2023-03-22T02:42:10;100605.44;;;8.64;100.00
59757;BME280;45631;51.962;5.974;2023-03-22T02:44:44;100600.28;;;8.62;100.00
59757;BME280;45631;51.962;5.974;2023-03-22T02:47:20;100601.06;;;8.65;100.00
59757;BME280;45631;51.962;5.974;2023-03-22T02:49:54;100593.09;;;8.66;100.00
59757;BME280;45631;51.962;5.974;2023-03-22T02:52:31;100596.91;;;8.75;100.00
59757;BME280;45631;51.962;5.974;2023-03-22T02:55:12;100591.28;;;8.67;100.00
59757;BME280;45631;51.962;5.974;2023-03-22T02:57:44;100586.44;;;8.75;100.00
59757;BME280;45631;51.962;5.974;2023-03-22T03:00:17;100576.69;;;8.62;100.00
59757;BME280;45631;51.962;5.974;2023-03-22T03:02:50;100583.91;;;8.59;100.00
59757;BME280;45631;51.962;5.974;2023-03-22T03:05:20;100578.19;;;8.67;100.00
59757;BME280;45631;51.962;5.974;2023-03-22T03:07:53;100577.47;;;8.65;100.00
59757;BME280;45631;51.962;5.974;2023-03-22T03:10:26;100566.78;;;8.68;100.00
59757;BME280;45631;51.962;5.974;2023-03-22T03:12:54;100566.97;;;8.65;100.00
59757;BME280;45631;51.962;5.974;2023-03-22T03:15:23;100567.91;;;8.63;100.00
59757;BME280;45631;51.962;5.974;2023-03-22T03:18:17;100564.34;;;8.65;100.00
59757;BME280;45631;51.962;5.974;2023-03-22T03:20:55;100556.94;;;8.71;100.00
59757;BME280;45631;51.962;5.974;2023-03-22T03:23:32;100564.16;;;8.68;100.00
59757;BME280;45631;51.962;5.974;2023-03-22T03:26:11;100562.47;;;8.67;100.00
59757;BME280;45631;51.962;5.974;2023-03-22T03:28:46;100549.81;;;8.73;100.00
59757;BME280;45631;51.962;5.974;2023-03-22T03:31:25;100556.28;;;8.68;100.00
59757;BME280;45631;51.962;5.974;2023-03-22T03:34:02;100547.66;;;8.66;100.00
59757;BME280;45631;51.962;5.974;2023-03-22T03:36:34;100553.19;;;8.75;100.00
59757;BME280;45631;51.962;5.974;2023-03-22T03:39:08;100550.28;;;8.80;100.00
59757;BME280;45631;51.962;5.974;2023-03-22T03:41:41;100549.97;;;8.85;100.00
59757;BME280;45631;51.962;5.974;2023-03-22T03:44:11;100548.94;;;8.87;100.00
59757;BME280;45631;51.962;5.974;2023-03-22T03:46:41;100545.09;;;8.93;100.00
59757;BME280;45631;51.962;5.974;2023-03-22T03:49:11;100542.75;;;9.03;100.00
59757;BME280;45631;51.962;5.974;2023-03-22T03:51:46;100551.34;;;9.05;100.00
59757;BME280;45631;51.962;5.974;2023-03-22T03:54:15;100551.34;;;9.05;100.00
59757;BME280;45631;51.962;5.974;2023-03-22T03:56:45;100552.63;;;9.12;100.00
59757;BME280;45631;51.962;5.974;2023-03-22T03:59:14;100555.38;;;9.10;100.00
59757;BME280;45631;51.962;5.974;2023-03-22T04:01:43;100550.63;;;9.03;100.00
59757;BME280;45631;51.962;5.974;2023-03-22T04:04:17;100551.34;;;9.05;100.00
59757;BME280;45631;51.962;5.974;2023-03-22T04:06:53;100552.22;;;9.05;100.00
59757;BME280;45631;51.962;5.974;2023-03-22T04:09:23;100547.81;;;9.06;100.00
59757;BME280;45631;51.962;5.974;2023-03-22T04:11:54;100553.88;;;9.06;100.00
59757;BME280;45631;51.962;5.974;2023-03-22T04:14:24;100556.50;;;9.06;100.00
59757;BME280;45631;51.962;5.974;2023-03-22T04:16:53;100548.63;;;9.06;100.00
59757;BME280;45631;51.962;5.974;2023-03-22T04:19:22;100546.09;;;9.05;100.00
59757;BME280;45631;51.962;5.974;2023-03-22T04:21:50;100544.53;;;9.02;100.00
59757;BME280;45631;51.962;5.974;2023-03-22T04:24:19;100545.56;;;9.00;100.00
59757;BME280;45631;51.962;5.974;2023-03-22T04:26:48;100543.78;;;9.00;100.00
59757;BME280;45631;51.962;5.974;2023-03-22T04:29:19;100547.34;;;8.99;100.00
59757;BME280;45631;51.962;5.974;2023-03-22T04:31:50;100539.03;;;8.92;100.00
59757;BME280;45631;51.962;5.974;2023-03-22T04:34:19;100535.00;;;8.87;100.00
59757;BME280;45631;51.962;5.974;2023-03-22T04:36:48;100539.50;;;8.85;100.00
59757;BME280;45631;51.962;5.974;2023-03-22T04:39:17;100532.94;;;8.92;100.00
59757;BME280;45631;51.962;5.974;2023-03-22T04:41:45;100532.38;;;8.87;100.00
59757;BME280;45631;51.962;5.974;2023-03-22T04:44:14;100535.09;;;8.85;100.00
59757;BME280;45631;51.962;5.974;2023-03-22T04:46:43;100532.28;;;8.88;100.00
59757;BME280;45631;51.962;5.974;2023-03-22T04:49:12;100533.41;;;8.84;100.00
59757;BME280;45631;51.962;5.974;2023-03-22T04:51:40;100535.94;;;8.86;100.00
59757;BME280;45631;51.962;5.974;2023-03-22T04:54:09;100528.28;;;8.83;100.00
59757;BME280;45631;51.962;5.974;2023-03-22T04:56:38;100534.66;;;8.78;100.00
59757;BME280;45631;51.962;5.974;2023-03-22T04:59:06;100522.25;;;8.80;100.00
59757;BME280;45631;51.962;5.974;2023-03-22T05:01:36;100524.16;;;8.78;100.00
59757;BME280;45631;51.962;5.974;2023-03-22T05:04:08;100517.31;;;8.76;100.00
59757;BME280;45631;51.962;5.974;2023-03-22T05:06:36;100520.41;;;8.68;100.00
59757;BME280;45631;51.962;5.974;2023-03-22T05:09:05;100518.56;;;8.70;100.00
59757;BME280;45631;51.962;5.974;2023-03-22T05:11:34;100524.81;;;8.68;100.00
59757;BME280;45631;51.962;5.974;2023-03-22T05:14:03;100518.66;;;8.69;100.00
59757;BME280;45631;51.962;5.974;2023-03-22T05:16:32;100517.16;;;8.65;100.00
59757;BME280;45631;51.962;5.974;2023-03-22T05:19:00;100506.69;;;8.65;100.00
59757;BME280;45631;51.962;5.974;2023-03-22T05:21:30;100517.25;;;8.63;100.00
59757;BME280;45631;51.962;5.974;2023-03-22T05:24:03;100513.50;;;8.67;100.00
59757;BME280;45631;51.962;5.974;2023-03-22T05:26:32;100510.69;;;8.70;100.00
59757;BME280;45631;51.962;5.974;2023-03-22T05:29:04;100510.69;;;8.70;100.00
59757;BME280;45631;51.962;5.974;2023-03-22T05:31:32;100502.91;;;8.69;100.00
59757;BME280;45631;51.962;5.974;2023-03-22T05:34:01;100503.94;;;8.66;100.00
59757;BME280;45631;51.962;5.974;2023-03-22T05:36:31;100501.44;;;8.65;100.00
59757;BME280;45631;51.962;5.974;2023-03-22T05:39:02;100505.66;;;8.67;100.00
59757;BME280;45631;51.962;5.974;2023-03-22T05:41:31;100504.59;;;8.70;100.00
59757;BME280;45631;51.962;5.974;2023-03-22T05:44:03;100497.84;;;8.66;100.00
59757;BME280;45631;51.962;5.974;2023-03-22T05:46:31;100503.09;;;8.66;100.00
59757;BME280;45631;51.962;5.974;2023-03-22T05:49:00;100510.13;;;8.65;100.00
59757;BME280;45631;51.962;5.974;2023-03-22T05:51:28;100508.34;;;8.66;100.00
59757;BME280;45631;51.962;5.974;2023-03-22T05:53:58;100509.47;;;8.61;100.00
59757;BME280;45631;51.962;5.974;2023-03-22T05:56:27;100511.91;;;8.65;100.00
59757;BME280;45631;51.962;5.974;2023-03-22T05:58:55;100502.25;;;8.65;100.00
59757;BME280;45631;51.962;5.974;2023-03-22T06:01:24;100496.00;;;8.68;100.00
59757;BME280;45631;51.962;5.974;2023-03-22T06:03:52;100495.53;;;8.61;100.00
59757;BME280;45631;51.962;5.974;2023-03-22T06:06:21;100493.66;;;8.63;100.00
59757;BME280;45631;51.962;5.974;2023-03-22T06:08:49;100503.56;;;8.72;100.00
59757;BME280;45631;51.962;5.974;2023-03-22T06:11:19;100507.31;;;8.68;100.00
59757;BME280;45631;51.962;5.974;2023-03-22T06:13:48;100504.97;;;8.63;100.00
59757;BME280;45631;51.962;5.974;2023-03-22T06:16:17;100504.78;;;8.67;100.00
59757;BME280;45631;51.962;5.974;2023-03-22T06:18:45;100496.34;;;8.61;100.00
59757;BME280;45631;51.962;5.974;2023-03-22T06:21:14;100498.34;;;8.58;100.00
59757;BME280;45631;51.962;5.974;2023-03-22T06:23:42;100493.72;;;8.61;100.00
59757;BME280;45631;51.962;5.974;2023-03-22T06:26:11;100498.03;;;8.62;100.00
59757;BME280;45631;51.962;5.974;2023-03-22T06:28:41;100504.78;;;8.67;100.00
59757;BME280;45631;51.962;5.974;2023-03-22T06:31:09;100500.47;;;8.66;100.00
59757;BME280;45631;51.962;5.974;2023-03-22T06:33:38;100501.44;;;8.65;100.00
59757;BME280;45631;51.962;5.974;2023-03-22T06:36:07;100488.84;;;8.70;100.00
59757;BME280;45631;51.962;5.974;2023-03-22T06:38:35;100490.66;;;8.69;100.00
59757;BME280;45631;51.962;5.974;2023-03-22T06:41:04;100493.16;;;8.71;100.00
59757;BME280;45631;51.962;5.974;2023-03-22T06:43:33;100491.78;;;8.65;100.00
59757;BME280;45631;51.962;5.974;2023-03-22T06:46:03;100496.81;;;8.68;100.00
59757;BME280;45631;51.962;5.974;2023-03-22T06:48:32;100498.72;;;8.66;100.00
59757;BME280;45631;51.962;5.974;2023-03-22T06:51:00;100498.59;;;8.68;100.00
59757;BME280;45631;51.962;5.974;2023-03-22T06:53:29;100497.28;;;8.75;100.00
59757;BME280;45631;51.962;5.974;2023-03-22T06:55:57;100496.34;;;8.76;100.00
59757;BME280;45631;51.962;5.974;2023-03-22T06:58:26;100493.59;;;8.92;100.00
59757;BME280;45631;51.962;5.974;2023-03-22T07:00:55;100493.78;;;8.89;100.00
59757;BME280;45631;51.962;5.974;2023-03-22T07:03:25;100495.72;;;9.00;100.00
59757;BME280;45631;51.962;5.974;2023-03-22T07:06:00;100491.03;;;9.05;100.00
59757;BME280;45631;51.962;5.974;2023-03-22T07:08:28;100492.41;;;9.10;100.00
59757;BME280;45631;51.962;5.974;2023-03-22T07:10:57;100494.00;;;9.13;100.00
59757;BME280;45631;51.962;5.974;2023-03-22T07:13:26;100494.88;;;9.26;100.00
59757;BME280;45631;51.962;5.974;2023-03-22T07:15:55;100492.69;;;9.33;100.00
59757;BME280;45631;51.962;5.974;2023-03-22T07:18:26;100501.41;;;9.34;100.00
59757;BME280;45631;51.962;5.974;2023-03-22T07:20:55;100490.31;;;9.43;100.00
59757;BME280;45631;51.962;5.974;2023-03-22T07:23:24;100496.22;;;9.46;100.00
59757;BME280;45631;51.962;5.974;2023-03-22T07:25:52;100502.94;;;9.51;100.00
59757;BME280;45631;51.962;5.974;2023-03-22T07:28:22;100499.88;;;9.57;100.00
59757;BME280;45631;51.962;5.974;2023-03-22T07:30:58;100498.63;;;9.62;100.00
59757;BME280;45631;51.962;5.974;2023-03-22T07:33:28;100488.69;;;9.68;100.00
59757;BME280;45631;51.962;5.974;2023-03-22T07:35:57;100493.63;;;9.72;100.00
59757;BME280;45631;51.962;5.974;2023-03-22T07:38:25;100487.97;;;9.78;100.00
59757;BME280;45631;51.962;5.974;2023-03-22T07:40:54;100485.44;;;9.77;100.00
59757;BME280;45631;51.962;5.974;2023-03-22T07:43:23;100492.16;;;9.81;100.00
59757;BME280;45631;51.962;5.974;2023-03-22T07:45:52;100494.91;;;9.79;100.00
59757;BME280;45631;51.962;5.974;2023-03-22T07:48:21;100493.22;;;9.78;100.00
59757;BME280;45631;51.962;5.974;2023-03-22T07:50:55;100489.66;;;9.79;100.00
59757;BME280;45631;51.962;5.974;2023-03-22T07:53:23;100494.69;;;9.82;100.00
59757;BME280;45631;51.962;5.974;2023-03-22T07:55:52;100498.16;;;9.83;100.00
59757;BME280;45631;51.962;5.974;2023-03-22T07:58:20;100492.81;;;9.85;100.00
59757;BME280;45631;51.962;5.974;2023-03-22T08:00:49;100495.31;;;9.86;100.00
59757;BME280;45631;51.962;5.974;2023-03-22T08:03:17;100501.84;;;9.93;100.00
59757;BME280;45631;51.962;5.974;2023-03-22T08:05:48;100494.72;;;9.95;100.00
59757;BME280;45631;51.962;5.974;2023-03-22T08:08:19;100503.41;;;9.96;100.00
59757;BME280;45631;51.962;5.974;2023-03-22T08:10:48;100501.44;;;10.00;100.00
59757;BME280;45631;51.962;5.974;2023-03-22T08:13:17;100499.41;;;10.03;100.00
59757;BME280;45631;51.962;5.974;2023-03-22T08:15:45;100490.91;;;10.12;100.00
59757;BME280;45631;51.962;5.974;2023-03-22T08:18:14;100496.91;;;10.14;100.00
59757;BME280;45631;51.962;5.974;2023-03-22T08:20:42;100501.13;;;10.17;100.00
59757;BME280;45631;51.962;5.974;2023-03-22T08:23:12;100495.44;;;10.23;100.00
59757;BME280;45631;51.962;5.974;2023-03-22T08:25:43;100493.84;;;10.21;100.00
59757;BME280;45631;51.962;5.974;2023-03-22T08:28:12;100489.94;;;10.26;100.00
59757;BME280;45631;51.962;5.974;2023-03-22T08:30:42;100483.16;;;10.37;100.00
59757;BME280;45631;51.962;5.974;2023-03-22T08:33:11;100481.53;;;10.47;100.00
59757;BME280;45631;51.962;5.974;2023-03-22T08:35:40;100495.66;;;10.46;100.00
59757;BME280;45631;51.962;5.974;2023-03-22T08:38:08;100497.25;;;10.48;100.00
59757;BME280;45631;51.962;5.974;2023-03-22T08:40:36;100507.31;;;10.55;100.00
59757;BME280;45631;51.962;5.974;2023-03-22T08:43:06;100501.63;;;10.61;100.00
59757;BME280;45631;51.962;5.974;2023-03-22T08:45:34;100504.16;;;10.62;100.00
59757;BME280;45631;51.962;5.974;2023-03-22T08:48:03;100496.03;;;10.65;100.00
59757;BME280;45631;51.962;5.974;2023-03-22T08:50:34;100494.31;;;10.77;100.00
59757;BME280;45631;51.962;5.974;2023-03-22T08:53:03;100488.31;;;10.75;100.00
59757;BME280;45631;51.962;5.974;2023-03-22T08:55:32;100493.47;;;10.77;100.00
59757;BME280;45631;51.962;5.974;2023-03-22T08:58:02;100491.47;;;10.80;100.00
59757;BME280;45631;51.962;5.974;2023-03-22T09:00:31;100489.88;;;10.91;100.00
59757;BME280;45631;51.962;5.974;2023-03-22T09:03:14;100482.34;;;10.97;100.00
59757;BME280;45631;51.962;5.974;2023-03-22T09:05:45;100483.84;;;11.02;100.00
59757;BME280;45631;51.962;5.974;2023-03-22T09:08:13;100487.91;;;11.06;100.00
59757;BME280;45631;51.962;5.974;2023-03-22T09:10:45;100487.09;;;11.16;100.00
59757;BME280;45631;51.962;5.974;2023-03-22T09:13:18;100496.13;;;11.25;100.00
59757;BME280;45631;51.962;5.974;2023-03-22T09:15:49;100489.97;;;11.38;100.00
59757;BME280;45631;51.962;5.974;2023-03-22T09:18:17;100484.47;;;11.41;100.00
59757;BME280;45631;51.962;5.974;2023-03-22T09:20:46;100479.34;;;11.50;100.00
59757;BME280;45631;51.962;5.974;2023-03-22T09:23:14;100481.28;;;11.60;100.00
59757;BME280;45631;51.962;5.974;2023-03-22T09:25:42;100474.38;;;11.70;100.00
59757;BME280;45631;51.962;5.974;2023-03-22T09:28:10;100474.03;;;11.75;100.00
59757;BME280;45631;51.962;5.974;2023-03-22T09:30:38;100474.78;;;11.88;100.00
59757;BME280;45631;51.962;5.974;2023-03-22T09:33:08;100470.69;;;11.84;100.00
59757;BME280;45631;51.962;5.974;2023-03-22T09:35:39;100478.47;;;11.86;100.00
59757;BME280;45631;51.962;5.974;2023-03-22T09:38:08;100484.94;;;11.93;100.00
59757;BME280;45631;51.962;5.974;2023-03-22T09:40:42;100461.25;;;11.93;100.00
59757;BME280;45631;51.962;5.974;2023-03-22T09:43:16;100478.16;;;11.90;100.00
59757;BME280;45631;51.962;5.974;2023-03-22T09:45:47;100475.72;;;11.87;100.00
59757;BME280;45631;51.962;5.974;2023-03-22T09:48:20;100472.19;;;11.99;100.00
59757;BME280;45631;51.962;5.974;2023-03-22T09:50:51;100471.19;;;11.89;100.00
59757;BME280;45631;51.962;5.974;2023-03-22T09:53:23;100479.09;;;11.89;100.00
59757;BME280;45631;51.962;5.974;2023-03-22T09:55:56;100482.81;;;11.87;100.00
59757;BME280;45631;51.962;5.974;2023-03-22T09:58:31;100474.75;;;11.77;100.00
59757;BME280;45631;51.962;5.974;2023-03-22T10:01:04;100469.38;;;11.78;100.00
59757;BME280;45631;51.962;5.974;2023-03-22T10:03:55;100461.53;;;11.65;100.00
59757;BME280;45631;51.962;5.974;2023-03-22T10:06:28;100481.34;;;11.71;100.00
59757;BME280;45631;51.962;5.974;2023-03-22T10:09:03;100471.25;;;11.65;100.00
59757;BME280;45631;51.962;5.974;2023-03-22T10:11:41;100474.34;;;11.59;100.00
59757;BME280;45631;51.962;5.974;2023-03-22T10:14:23;100463.34;;;11.65;100.00
59757;BME280;45631;51.962;5.974;2023-03-22T10:16:56;100470.81;;;11.71;100.00
59757;BME280;45631;51.962;5.974;2023-03-22T10:19:32;100473.78;;;11.66;100.00
59757;BME280;45631;51.962;5.974;2023-03-22T10:22:03;100474.38;;;11.70;100.00
59757;BME280;45631;51.962;5.974;2023-03-22T10:24:35;100478.34;;;11.76;100.00
59757;BME280;45631;51.962;5.974;2023-03-22T10:27:13;100462.06;;;11.82;100.00
59757;BME280;45631;51.962;5.974;2023-03-22T10:29:44;100462.03;;;11.71;100.00
59757;BME280;45631;51.962;5.974;2023-03-22T10:32:15;100465.16;;;11.64;100.00
59757;BME280;45631;51.962;5.974;2023-03-22T10:34:45;100470.44;;;11.64;100.00
59757;BME280;45631;51.962;5.974;2023-03-22T10:37:17;100466.44;;;11.59;100.00
59757;BME280;45631;51.962;5.974;2023-03-22T10:39:48;100467.63;;;11.55;100.00
59757;BME280;45631;51.962;5.974;2023-03-22T10:42:20;100467.75;;;11.53;100.00
59757;BME280;45631;51.962;5.974;2023-03-22T10:44:51;100477.22;;;11.56;100.00
59757;BME280;45631;51.962;5.974;2023-03-22T10:47:28;100474.31;;;11.47;100.00
59757;BME280;45631;51.962;5.974;2023-03-22T10:50:02;100482.06;;;11.38;100.00
59757;BME280;45631;51.962;5.974;2023-03-22T10:52:40;100476.13;;;11.23;100.00
59757;BME280;45631;51.962;5.974;2023-03-22T10:55:12;100472.88;;;11.19;100.00
59757;BME280;45631;51.962;5.974;2023-03-22T10:57:40;100481.00;;;11.16;100.00
59757;BME280;45631;51.962;5.974;2023-03-22T11:00:14;100483.66;;;11.16;100.00
59757;BME280;45631;51.962;5.974;2023-03-22T11:02:50;100489.06;;;11.26;100.00
59757;BME280;45631;51.962;5.974;2023-03-22T11:05:22;100482.06;;;11.13;100.00
59757;BME280;45631;51.962;5.974;2023-03-22T11:07:52;100485.66;;;11.12;100.00
59757;BME280;45631;51.962;5.974;2023-03-22T11:10:29;100486.94;;;11.07;100.00
59757;BME280;45631;51.962;5.974;2023-03-22T11:13:16;100487.41;;;11.01;100.00
59757;BME280;45631;51.962;5.974;2023-03-22T11:15:53;100490.97;;;10.99;100.00
59757;BME280;45631;51.962;5.974;2023-03-22T11:18:23;100490.97;;;10.99;100.00
59757;BME280;45631;51.962;5.974;2023-03-22T11:20:56;100490.97;;;10.99;100.00
59757;BME280;45631;51.962;5.974;2023-03-22T11:23:26;100481.50;;;10.97;100.00
59757;BME280;45631;51.962;5.974;2023-03-22T11:25:57;100488.59;;;10.96;100.00
59757;BME280;45631;51.962;5.974;2023-03-22T11:28:27;100476.91;;;10.88;100.00
59757;BME280;45631;51.962;5.974;2023-03-22T11:31:02;100483.91;;;11.00;100.00
59757;BME280;45631;51.962;5.974;2023-03-22T11:33:32;100491.63;;;10.90;100.00
59757;BME280;45631;51.962;5.974;2023-03-22T11:36:15;100485.88;;;10.85;100.00
59757;BME280;45631;51.962;5.974;2023-03-22T11:38:44;100477.03;;;10.86;100.00
59757;BME280;45631;51.962;5.974;2023-03-22T11:41:20;100467.78;;;10.80;100.00
59757;BME280;45631;51.962;5.974;2023-03-22T11:43:51;100469.06;;;10.75;100.00
59757;BME280;45631;51.962;5.974;2023-03-22T11:46:21;100472.94;;;10.82;100.00
59757;BME280;45631;51.962;5.974;2023-03-22T11:48:51;100479.06;;;10.82;100.00
59757;BME280;45631;51.962;5.974;2023-03-22T11:51:29;100475.47;;;10.83;100.00
59757;BME280;45631;51.962;5.974;2023-03-22T11:54:05;100468.91;;;10.89;100.00
59757;BME280;45631;51.962;5.974;2023-03-22T11:56:39;100469.38;;;10.83;100.00
59757;BME280;45631;51.962;5.974;2023-03-22T11:59:12;100475.69;;;10.80;100.00
59757;BME280;45631;51.962;5.974;2023-03-22T12:01:41;100472.94;;;10.82;100.00
59757;BME280;45631;51.962;5.974;2023-03-22T12:04:15;100467.38;;;10.87;100.00
59757;BME280;45631;51.962;5.974;2023-03-22T12:06:46;100473.97;;;10.92;100.00
59757;BME280;45631;51.962;5.974;2023-03-22T12:09:23;100460.34;;;10.98;100.00
59757;BME280;45631;51.962;5.974;2023-03-22T12:11:54;100451.63;;;10.98;100.00
59757;BME280;45631;51.962;5.974;2023-03-22T12:14:27;100465.41;;;11.02;100.00
59757;BME280;45631;51.962;5.974;2023-03-22T12:16:58;100455.19;;;10.97;100.00
59757;BME280;45631;51.962;5.974;2023-03-22T12:19:40;100451.75;;;10.96;100.00
59757;BME280;45631;51.962;5.974;2023-03-22T12:22:15;100447.19;;;10.98;100.00
59757;BME280;45631;51.962;5.974;2023-03-22T12:24:45;100453.31;;;10.99;100.00
59757;BME280;45631;51.962;5.974;2023-03-22T12:27:16;100461.41;;;10.96;100.00
59757;BME280;45631;51.962;5.974;2023-03-22T12:29:51;100459.63;;;10.96;100.00
59757;BME280;45631;51.962;5.974;2023-03-22T12:32:24;100464.78;;;10.98;100.00
59757;BME280;45631;51.962;5.974;2023-03-22T12:34:54;100469.19;;;10.97;100.00
59757;BME280;45631;51.962;5.974;2023-03-22T12:37:47;100467.94;;;11.03;100.00
59757;BME280;45631;51.962;5.974;2023-03-22T12:40:21;100464.16;;;10.94;100.00
59757;BME280;45631;51.962;5.974;2023-03-22T12:42:56;100456.50;;;10.91;100.00
59757;BME280;45631;51.962;5.974;2023-03-22T12:45:28;100471.63;;;11.01;100.00
59757;BME280;45631;51.962;5.974;2023-03-22T12:48:03;100455.31;;;10.95;100.00
59757;BME280;45631;51.962;5.974;2023-03-22T12:50:36;100457.53;;;11.02;100.00
59757;BME280;45631;51.962;5.974;2023-03-22T12:53:11;100451.22;;;10.91;100.00
59757;BME280;45631;51.962;5.974;2023-03-22T12:55:43;100458.38;;;10.89;100.00
59757;BME280;45631;51.962;5.974;2023-03-22T12:58:13;100456.16;;;10.96;100.00
59757;BME280;45631;51.962;5.974;2023-03-22T13:00:47;100465.34;;;10.90;100.00
59757;BME280;45631;51.962;5.974;2023-03-22T13:03:22;100459.84;;;10.93;100.00
59757;BME280;45631;51.962;5.974;2023-03-22T13:06:00;100457.44;;;10.90;100.00
59757;BME280;45631;51.962;5.974;2023-03-22T13:11:28;100460.81;;;10.92;100.00
59757;BME280;45631;51.962;5.974;2023-03-22T13:13:56;100463.56;;;10.91;100.00
59757;BME280;45631;51.962;5.974;2023-03-22T13:16:50;100459.25;;;10.90;100.00
59757;BME280;45631;51.962;5.974;2023-03-22T13:19:32;100449.78;;;10.87;100.00